Time;durP1;ratioP1;P1;durP2;ratioP2;P2;SDS_P1;SDS_P2;PMS_P1;PMS_P2;Temp;Humidity;BMP_temperature;BMP_pressure;BME280_temperature;BME280_humidity;BME280_pressure;Samples;Min_cycle;Max_cycle;Signal;HPM_P1;HPM_P2
2024/01/27 00:01:37;;;;;;;5.65;1.40;;;;;;;6.02;100.00;102145.75;5082602;28;20028;-76
2024/01/27 00:04:03;;;;;;;5.32;1.25;;;;;;;6.03;100.00;102147.44;5115870;28;20463;-76
2024/01/27 00:06:29;;;;;;;5.70;1.30;;;;;;;6.06;100.00;102144.56;5082068;28;20039;-76
2024/01/27 00:08:54;;;;;;;3.85;1.20;;;;;;;6.12;100.00;102137.91;5082976;28;20065;-76
2024/01/27 00:11:20;;;;;;;7.10;1.45;;;;;;;6.14;100.00;102139.50;5098471;28;20470;-76
2024/01/27 00:13:46;;;;;;;7.85;1.88;;;;;;;6.20;100.00;102132.00;5081961;28;20194;-76
2024/01/27 00:16:12;;;;;;;8.25;1.75;;;;;;;6.22;100.00;102133.59;5081881;28;20031;-77
2024/01/27 00:18:38;;;;;;;5.15;1.40;;;;;;;6.28;100.00;102137.63;5081670;28;20032;-76
2024/01/27 00:21:07;;;;;;;3.05;1.23;;;;;;;6.32;100.00;102137.28;5115505;28;20118;-77
2024/01/27 00:23:34;;;;;;;6.40;1.70;;;;;;;6.31;100.00;102129.38;5081797;28;20040;-77
2024/01/27 00:26:01;;;;;;;4.57;1.20;;;;;;;6.34;100.00;102131.84;5099156;28;20363;-76
2024/01/27 00:28:27;;;;;;;4.82;1.20;;;;;;;6.29;100.00;102120.63;5081799;28;20032;-76
2024/01/27 00:30:52;;;;;;;8.40;2.42;;;;;;;6.26;100.00;102127.06;5081667;28;20043;-76
2024/01/27 00:33:18;;;;;;;6.68;1.58;;;;;;;6.24;100.00;102130.81;5081653;28;20032;-76
2024/01/27 00:35:43;;;;;;;4.97;1.73;;;;;;;6.14;100.00;102123.50;5098779;28;20027;-76
2024/01/27 00:38:09;;;;;;;4.90;1.42;;;;;;;6.07;100.00;102121.38;5081554;28;20387;-76
2024/01/27 00:40:35;;;;;;;6.25;1.23;;;;;;;6.05;100.00;102118.81;5081497;28;20489;-77
2024/01/27 00:43:04;;;;;;;6.28;1.52;;;;;;;6.00;100.00;102115.63;5081144;28;20023;-76
2024/01/27 00:45:30;;;;;;;2.63;1.10;;;;;;;5.87;100.00;102104.97;5081074;28;20032;-77
2024/01/27 00:47:59;;;;;;;4.25;1.20;;;;;;;5.89;100.00;102111.03;5114757;28;20035;-77
2024/01/27 00:50:25;;;;;;;3.28;1.00;;;;;;;5.90;100.00;102112.78;5081287;28;20045;-76
2024/01/27 00:52:50;;;;;;;5.13;1.10;;;;;;;5.95;100.00;102104.44;5114651;28;20035;-76
2024/01/27 00:55:17;;;;;;;3.17;1.30;;;;;;;6.00;100.00;102102.28;5082033;28;20035;-77
2024/01/27 00:57:42;;;;;;;8.73;1.60;;;;;;;6.01;100.00;102106.66;5098156;28;20518;-76
2024/01/27 01:00:09;;;;;;;4.03;1.20;;;;;;;6.07;100.00;102116.88;5098021;28;20027;-76
2024/01/27 01:02:36;;;;;;;5.38;1.20;;;;;;;6.12;100.00;102106.72;5081789;28;20063;-77
2024/01/27 01:05:03;;;;;;;5.90;1.48;;;;;;;6.18;100.00;102099.22;5113690;28;20038;-77
2024/01/27 01:07:30;;;;;;;2.28;0.95;;;;;;;6.20;100.00;102099.97;5097713;28;20035;-77
2024/01/27 01:09:56;;;;;;;5.05;1.50;;;;;;;6.21;100.00;102101.66;5080992;28;20051;-76
2024/01/27 01:12:22;;;;;;;3.88;1.13;;;;;;;6.25;100.00;102097.81;5097754;28;20417;-76
2024/01/27 01:14:48;;;;;;;3.85;1.33;;;;;;;6.25;100.00;102100.47;5080855;28;20065;-76
2024/01/27 01:17:13;;;;;;;6.72;1.45;;;;;;;6.25;100.00;102097.81;5081078;28;20043;-77
2024/01/27 01:19:40;;;;;;;4.90;1.30;;;;;;;6.25;100.00;102090.63;5097532;28;20530;-76
2024/01/27 01:22:06;;;;;;;4.45;1.20;;;;;;;6.30;100.00;102084.97;5080561;28;20503;-76
2024/01/27 01:24:32;;;;;;;1.95;0.90;;;;;;;6.30;100.00;102088.47;5080653;28;20032;-77
2024/01/27 01:26:59;;;;;;;7.18;1.55;;;;;;;6.31;100.00;102090.16;5064318;28;20040;-77
2024/01/27 01:29:24;;;;;;;3.35;1.35;;;;;;;6.29;100.00;102084.09;5080564;28;20024;-76
2024/01/27 01:31:50;;;;;;;8.35;1.10;;;;;;;6.29;100.00;102080.56;5080460;28;20054;-76
2024/01/27 01:34:16;;;;;;;4.00;1.00;;;;;;;6.26;100.00;102089.66;5080905;28;20043;-77
2024/01/27 01:36:42;;;;;;;4.85;1.35;;;;;;;6.25;100.00;102081.78;5080836;28;20024;-76
2024/01/27 01:39:10;;;;;;;4.60;0.98;;;;;;;6.25;100.00;102087.13;5113991;28;20049;-76
2024/01/27 01:41:35;;;;;;;6.03;1.77;;;;;;;6.22;100.00;102074.84;5080380;28;20036;-77
2024/01/27 01:44:01;;;;;;;4.45;1.10;;;;;;;6.22;100.00;102082.88;5080224;28;20041;-76
2024/01/27 01:46:30;;;;;;;4.90;1.15;;;;;;;6.23;100.00;102073.88;5080178;28;20421;-76
2024/01/27 01:48:56;;;;;;;8.35;1.63;;;;;;;6.24;100.00;102080.06;5080113;28;20105;-76
2024/01/27 01:51:22;;;;;;;6.32;1.50;;;;;;;6.29;100.00;102060.03;5080056;28;20040;-76
2024/01/27 01:53:49;;;;;;;6.10;1.10;;;;;;;6.27;100.00;102066.47;5079961;28;20056;-77
2024/01/27 01:56:17;;;;;;;7.57;1.88;;;;;;;6.18;100.00;102059.16;5064066;28;20028;-77
2024/01/27 01:58:44;;;;;;;4.07;1.20;;;;;;;6.21;100.00;102057.09;5096675;28;20442;-77
2024/01/27 02:01:10;;;;;;;5.82;1.42;;;;;;;6.26;100.00;102052.25;5096750;28;20036;-76
2024/01/27 02:03:35;;;;;;;6.68;1.42;;;;;;;6.26;100.00;102051.41;5064229;28;20466;-76
2024/01/27 02:06:01;;;;;;;7.05;2.05;;;;;;;6.27;100.00;102031.75;5079821;28;20539;-77
2024/01/27 02:08:26;;;;;;;6.45;1.10;;;;;;;6.31;100.00;102028.72;5079827;28;20028;-76
2024/01/27 02:10:52;;;;;;;4.43;1.25;;;;;;;6.36;100.00;102039.06;5079833;28;20083;-76
2024/01/27 02:13:22;;;;;;;3.20;1.40;;;;;;;6.38;100.00;102032.66;5079760;28;20471;-76
2024/01/27 02:15:49;;;;;;;4.40;1.40;;;;;;;6.43;100.00;102028.75;5079400;28;20088;-76
2024/01/27 02:18:15;;;;;;;7.82;1.40;;;;;;;6.44;100.00;102017.13;5079339;28;20032;-76
2024/01/27 02:20:41;;;;;;;5.05;1.10;;;;;;;6.43;100.00;101992.22;5079575;28;20035;-76
2024/01/27 02:23:07;;;;;;;4.32;1.33;;;;;;;6.44;100.00;102011.78;5096174;28;20409;-76
2024/01/27 02:25:34;;;;;;;5.55;1.10;;;;;;;6.45;100.00;102018.81;5096469;28;20036;-76
2024/01/27 02:28:02;;;;;;;4.50;1.08;;;;;;;6.45;100.00;102013.47;5113621;28;20042;-76
2024/01/27 02:30:28;;;;;;;4.35;0.90;;;;;;;6.45;100.00;102008.97;5096564;28;20468;-76
2024/01/27 02:32:56;;;;;;;3.33;1.30;;;;;;;6.46;100.00;101999.16;5079422;28;20415;-76
2024/01/27 02:35:22;;;;;;;4.97;1.17;;;;;;;6.46;100.00;101999.16;5113152;28;20410;-77
2024/01/27 02:37:47;;;;;;;3.75;1.33;;;;;;;6.46;100.00;102000.00;5112965;28;20024;-76
2024/01/27 02:40:14;;;;;;;2.85;1.08;;;;;;;6.49;100.00;102006.94;5079472;28;20046;-77
2024/01/27 02:42:42;;;;;;;2.03;0.90;;;;;;;6.51;100.00;102011.19;5079039;28;20376;-76
2024/01/27 02:45:08;;;;;;;2.78;1.20;;;;;;;6.53;100.00;102006.53;5080042;28;20530;-76
2024/01/27 02:47:34;;;;;;;4.25;1.13;;;;;;;6.52;100.00;101996.84;5062511;28;20035;-76
2024/01/27 02:49:59;;;;;;;2.47;1.20;;;;;;;6.51;100.00;102000.50;5095745;28;20100;-76
2024/01/27 02:52:25;;;;;;;3.95;1.00;;;;;;;6.49;100.00;101996.25;5095568;28;20027;-77
2024/01/27 02:54:51;;;;;;;6.13;0.90;;;;;;;6.50;100.00;102000.59;5079140;28;20035;-76
2024/01/27 02:57:18;;;;;;;5.95;1.25;;;;;;;6.50;100.00;102006.78;5079143;28;20063;-76
2024/01/27 02:59:46;;;;;;;1.92;1.10;;;;;;;6.49;100.00;102009.59;5079336;28;20062;-76
2024/01/27 03:02:12;;;;;;;6.57;1.10;;;;;;;6.49;100.00;102010.44;5079001;28;20035;-76
2024/01/27 03:04:38;;;;;;;2.45;1.05;;;;;;;6.48;100.00;102003.38;5079295;28;20032;-76
2024/01/27 03:07:04;;;;;;;5.18;1.00;;;;;;;6.50;100.00;101995.25;5079665;28;20032;-76
2024/01/27 03:09:30;;;;;;;3.83;1.33;;;;;;;6.43;100.00;101983.34;5079222;28;20352;-76
2024/01/27 03:11:56;;;;;;;5.35;1.30;;;;;;;6.39;100.00;101993.41;5112650;28;20044;-76
2024/01/27 03:14:22;;;;;;;9.88;1.33;;;;;;;6.35;100.00;101992.81;5078971;28;20031;-77
2024/01/27 03:16:48;;;;;;;6.32;1.30;;;;;;;6.33;100.00;101997.41;5079023;28;20031;-77
2024/01/27 03:19:13;;;;;;;3.25;0.93;;;;;;;6.29;100.00;101993.25;5078858;28;20062;-76
2024/01/27 03:21:39;;;;;;;4.80;1.20;;;;;;;6.28;100.00;101991.56;5078810;28;20460;-76
2024/01/27 03:24:05;;;;;;;8.73;1.50;;;;;;;6.34;100.00;101996.44;5079001;28;20078;-77
2024/01/27 03:26:33;;;;;;;5.80;1.08;;;;;;;6.37;100.00;101993.53;5078821;28;20035;-76
2024/01/27 03:28:59;;;;;;;4.25;1.00;;;;;;;6.39;100.00;101999.59;5098696;28;20522;-77
2024/01/27 03:31:32;;;;;;;4.43;0.90;;;;;;;6.42;100.00;101992.31;5082778;28;20024;-76
2024/01/27 03:34:03;;;;;;;7.70;1.17;;;;;;;6.44;100.00;101991.25;5099605;28;20032;-76
2024/01/27 03:36:29;;;;;;;4.15;1.30;;;;;;;6.44;100.00;101985.06;5099395;28;20043;-76
2024/01/27 03:38:56;;;;;;;5.55;1.42;;;;;;;6.47;100.00;101987.47;5082691;28;20020;-77
2024/01/27 03:41:22;;;;;;;4.90;1.23;;;;;;;6.47;100.00;101988.31;5098973;28;20023;-76
2024/01/27 03:43:47;;;;;;;2.50;0.90;;;;;;;6.48;100.00;101989.16;5082564;28;20031;-77
2024/01/27 03:46:13;;;;;;;6.45;1.17;;;;;;;6.45;100.00;101976.91;5082500;28;20042;-76
2024/01/27 03:48:39;;;;;;;5.15;1.27;;;;;;;6.46;100.00;101975.09;5082462;28;20047;-76
2024/01/27 03:51:05;;;;;;;7.63;1.13;;;;;;;6.42;100.00;101970.97;5098996;28;20038;-76
2024/01/27 03:53:32;;;;;;;5.00;1.10;;;;;;;6.36;100.00;101967.78;5099415;28;20039;-76
2024/01/27 03:56:04;;;;;;;3.08;0.93;;;;;;;6.36;100.00;101974.97;5099207;28;20035;-76
2024/01/27 03:58:30;;;;;;;6.00;1.17;;;;;;;6.35;100.00;101970.56;5100037;28;20055;-76
2024/01/27 04:00:57;;;;;;;5.93;1.50;;;;;;;6.37;100.00;101973.97;5065768;28;20291;-77
2024/01/27 04:03:23;;;;;;;6.57;1.83;;;;;;;6.39;100.00;101966.69;5098544;28;20526;-76
2024/01/27 04:05:49;;;;;;;4.55;1.23;;;;;;;6.40;100.00;101963.03;5098938;28;20030;-76
2024/01/27 04:08:14;;;;;;;6.55;1.20;;;;;;;6.41;100.00;101953.25;5098588;28;20028;-77
2024/01/27 04:10:40;;;;;;;8.35;1.33;;;;;;;6.44;100.00;101955.66;5098865;28;20040;-76
2024/01/27 04:13:06;;;;;;;6.13;1.40;;;;;;;6.40;100.00;101947.03;5115726;28;20035;-76
2024/01/27 04:15:38;;;;;;;4.68;1.13;;;;;;;6.36;100.00;101948.25;5098465;28;20076;-76
2024/01/27 04:18:11;;;;;;;8.48;1.30;;;;;;;6.28;100.00;101940.81;5082272;28;20043;-76
2024/01/27 04:20:37;;;;;;;7.40;1.70;;;;;;;6.27;100.00;101940.94;5115675;28;20027;-76
2024/01/27 04:23:04;;;;;;;5.80;1.38;;;;;;;6.27;100.00;101938.25;5098512;28;20046;-76
2024/01/27 04:25:29;;;;;;;4.63;1.00;;;;;;;6.28;100.00;101946.16;5098699;28;20043;-77
2024/01/27 04:27:55;;;;;;;3.58;1.00;;;;;;;6.28;100.00;101940.81;5081735;28;20494;-77
2024/01/27 04:30:21;;;;;;;3.22;1.48;;;;;;;6.27;100.00;101935.59;5081832;28;20131;-76
2024/01/27 04:32:49;;;;;;;7.07;1.42;;;;;;;6.28;100.00;101939.97;5081718;28;20073;-76
2024/01/27 04:35:14;;;;;;;5.55;1.17;;;;;;;6.27;100.00;101925.78;5115285;28;20422;-76
2024/01/27 04:37:40;;;;;;;4.13;1.15;;;;;;;6.32;100.00;101928.06;5081529;28;20126;-77
2024/01/27 04:40:07;;;;;;;4.53;1.17;;;;;;;6.31;100.00;101926.38;5098334;28;20124;-76
2024/01/27 04:42:38;;;;;;;4.05;1.02;;;;;;;6.31;100.00;101945.91;5081790;28;20124;-77
2024/01/27 04:45:05;;;;;;;5.30;1.50;;;;;;;6.28;100.00;101939.97;5115245;28;20043;-76
2024/01/27 04:47:31;;;;;;;2.67;0.88;;;;;;;6.27;100.00;101940.94;5081357;28;20036;-76
2024/01/27 04:49:57;;;;;;;7.10;1.20;;;;;;;6.21;100.00;101934.25;5098187;28;20023;-76
2024/01/27 04:52:23;;;;;;;4.70;0.82;;;;;;;6.22;100.00;101941.31;5114597;28;20067;-77
2024/01/27 04:54:49;;;;;;;7.80;1.38;;;;;;;6.21;100.00;101936.06;5080885;28;20074;-77
2024/01/27 04:57:16;;;;;;;4.85;1.38;;;;;;;6.20;100.00;101945.06;5098075;28;20035;-76
2024/01/27 04:59:41;;;;;;;3.30;1.30;;;;;;;6.25;100.00;101935.72;5080707;28;20479;-77
2024/01/27 05:02:07;;;;;;;2.92;1.10;;;;;;;6.18;100.00;101933.63;5080844;28;20031;-77
2024/01/27 05:04:32;;;;;;;5.40;1.33;;;;;;;6.11;100.00;101930.56;5097880;28;20173;-76
2024/01/27 05:06:58;;;;;;;3.00;1.50;;;;;;;6.09;100.00;101925.38;5081533;28;20036;-78
2024/01/27 05:09:25;;;;;;;5.93;1.30;;;;;;;6.05;100.00;101917.72;5080821;28;20498;-76
2024/01/27 05:11:52;;;;;;;7.93;1.30;;;;;;;6.12;100.00;101909.09;5080745;28;20053;-76
2024/01/27 05:14:18;;;;;;;5.88;1.45;;;;;;;6.13;100.00;101918.81;5081105;28;20040;-76
2024/01/27 05:16:44;;;;;;;8.57;1.27;;;;;;;6.10;100.00;101910.19;5080788;28;20097;-77
2024/01/27 05:19:10;;;;;;;6.40;1.05;;;;;;;6.05;100.00;101915.88;5097338;28;20028;-77
2024/01/27 05:21:36;;;;;;;5.18;1.20;;;;;;;6.04;100.00;101908.84;5081129;28;20027;-77
2024/01/27 05:24:02;;;;;;;6.10;1.35;;;;;;;6.09;100.00;101900.50;5097130;28;20467;-76
2024/01/27 05:26:27;;;;;;;4.32;1.20;;;;;;;6.11;100.00;101899.41;5080576;28;20032;-76
2024/01/27 05:28:53;;;;;;;6.97;1.27;;;;;;;6.11;100.00;101894.06;5080831;28;20080;-77
2024/01/27 05:31:21;;;;;;;6.20;1.17;;;;;;;6.09;100.00;101888.00;5081049;28;20432;-77
2024/01/27 05:33:47;;;;;;;7.38;1.50;;;;;;;6.05;100.00;101878.50;5081009;28;20036;-76
2024/01/27 05:36:13;;;;;;;8.13;1.60;;;;;;;6.06;100.00;101876.69;5097258;28;20450;-77
2024/01/27 05:38:38;;;;;;;5.30;1.10;;;;;;;6.11;100.00;101879.84;5080353;28;20039;-76
2024/01/27 05:41:04;;;;;;;6.20;1.30;;;;;;;6.16;100.00;101877.66;5080249;28;20127;-76
2024/01/27 05:43:30;;;;;;;5.93;1.17;;;;;;;6.23;100.00;101883.41;5080309;28;20360;-77
2024/01/27 05:45:56;;;;;;;7.07;1.20;;;;;;;6.28;100.00;101886.56;5096671;28;20383;-76
2024/01/27 05:48:22;;;;;;;4.65;1.55;;;;;;;6.27;100.00;101887.50;5080298;28;20425;-76
2024/01/27 05:51:00;;;;;;;6.78;1.40;;;;;;;6.27;100.00;101898.19;5096184;28;20464;-77
2024/01/27 05:53:27;;;;;;;4.22;1.58;;;;;;;6.22;100.00;101887.00;5096858;28;20493;-76
2024/01/27 05:55:54;;;;;;;7.15;1.17;;;;;;;6.22;100.00;101879.00;5080050;28;20100;-76
2024/01/27 05:58:22;;;;;;;6.75;1.13;;;;;;;6.14;100.00;101876.97;5113655;28;20054;-77
2024/01/27 06:00:48;;;;;;;6.05;1.23;;;;;;;6.05;100.00;101875.84;5080268;28;20027;-76
2024/01/27 06:03:14;;;;;;;8.45;1.52;;;;;;;5.96;100.00;101879.22;5079560;28;20367;-76
2024/01/27 06:05:41;;;;;;;9.48;1.65;;;;;;;5.93;100.00;101884.78;5096638;28;20028;-76
2024/01/27 06:08:08;;;;;;;4.65;1.02;;;;;;;5.91;100.00;101889.38;5096766;28;20088;-77
2024/01/27 06:10:33;;;;;;;5.95;1.45;;;;;;;5.85;100.00;101895.19;5113148;28;20024;-77
2024/01/27 06:12:59;;;;;;;2.10;0.80;;;;;;;5.78;100.00;101891.28;5079831;28;20539;-77
2024/01/27 06:15:25;;;;;;;3.60;1.52;;;;;;;5.68;100.00;101886.63;5079647;28;20036;-76
2024/01/27 06:17:50;;;;;;;6.00;1.30;;;;;;;5.65;100.00;101875.34;5079441;28;20043;-76
2024/01/27 06:20:18;;;;;;;14.23;1.58;;;;;;;5.62;100.00;101876.44;5079525;28;20070;-76
2024/01/27 06:22:43;;;;;;;4.93;1.15;;;;;;;5.49;100.00;101878.31;5079412;28;20031;-76
2024/01/27 06:25:10;;;;;;;5.55;1.10;;;;;;;5.49;100.00;101878.31;5095951;28;20032;-76
2024/01/27 06:27:37;;;;;;;6.55;1.40;;;;;;;5.53;100.00;101885.16;5096376;28;20027;-76
2024/01/27 06:30:05;;;;;;;9.23;1.20;;;;;;;5.57;100.00;101883.09;5096434;28;20461;-76
2024/01/27 06:32:31;;;;;;;4.45;1.30;;;;;;;5.59;100.00;101887.34;5079440;28;20130;-76
2024/01/27 06:34:56;;;;;;;8.43;1.30;;;;;;;5.59;100.00;101886.50;5112641;28;20104;-76
2024/01/27 06:37:22;;;;;;;5.82;1.30;;;;;;;5.61;100.00;101888.09;5096113;28;20452;-76
2024/01/27 06:39:48;;;;;;;4.65;1.63;;;;;;;5.66;100.00;101891.25;5079305;28;20467;-75
2024/01/27 06:42:13;;;;;;;8.32;2.03;;;;;;;5.75;100.00;101883.50;5078993;28;20035;-76
2024/01/27 06:44:39;;;;;;;11.77;3.08;;;;;;;5.74;100.00;101879.97;5112472;28;20024;-76
2024/01/27 06:47:05;;;;;;;11.95;3.63;;;;;;;5.75;100.00;101880.84;5113480;28;20120;-76
2024/01/27 06:49:30;;;;;;;8.00;2.22;;;;;;;5.79;100.00;101876.97;5079649;28;20383;-76
2024/01/27 06:51:56;;;;;;;6.82;1.83;;;;;;;5.85;100.00;101866.69;5079130;28;20059;-76
2024/01/27 06:54:22;;;;;;;10.07;2.75;;;;;;;5.92;100.00;101867.88;5079122;28;20429;-76
2024/01/27 06:56:47;;;;;;;13.07;3.00;;;;;;;5.89;100.00;101856.59;5078984;28;20036;-76
2024/01/27 06:59:13;;;;;;;8.13;2.95;;;;;;;5.90;100.00;101852.94;5095422;28;20059;-77
2024/01/27 07:01:39;;;;;;;7.75;2.42;;;;;;;5.90;100.00;101858.28;5078702;28;20027;-76
2024/01/27 07:04:05;;;;;;;10.75;1.30;;;;;;;5.90;100.00;101850.28;5082472;28;20035;-77
2024/01/27 07:06:31;;;;;;;7.50;2.33;;;;;;;6.03;100.00;101856.41;5082843;28;20529;-77
2024/01/27 07:08:56;;;;;;;6.00;1.70;;;;;;;6.08;100.00;101854.22;5099625;28;20081;-76
2024/01/27 07:11:22;;;;;;;8.68;1.83;;;;;;;6.12;100.00;101857.53;5083097;28;20464;-77
2024/01/27 07:13:47;;;;;;;7.65;1.40;;;;;;;6.11;100.00;101848.69;5082962;28;20039;-77
2024/01/27 07:16:13;;;;;;;4.82;1.30;;;;;;;6.12;100.00;101853.03;5099817;28;20205;-76
2024/01/27 07:18:39;;;;;;;5.82;1.45;;;;;;;6.07;100.00;101844.53;5099535;28;20059;-76
2024/01/27 07:21:04;;;;;;;7.78;1.50;;;;;;;6.10;100.00;101841.63;5082454;28;20093;-77
2024/01/27 07:23:30;;;;;;;5.90;1.40;;;;;;;6.13;100.00;101832.50;5099298;28;20108;-76
2024/01/27 07:25:57;;;;;;;9.75;2.03;;;;;;;6.18;100.00;101824.16;5117217;28;20032;-76
2024/01/27 07:28:22;;;;;;;8.75;3.05;;;;;;;6.11;100.00;101824.66;5082873;28;20028;-77
2024/01/27 07:30:48;;;;;;;8.32;2.65;;;;;;;6.10;100.00;101825.59;5082721;28;20039;-77
2024/01/27 07:33:14;;;;;;;7.50;1.45;;;;;;;6.04;100.00;101830.59;5082716;28;20398;-76
2024/01/27 07:35:40;;;;;;;11.77;1.85;;;;;;;6.00;100.00;101832.63;5099138;28;20024;-76
2024/01/27 07:38:06;;;;;;;9.27;1.40;;;;;;;6.00;100.00;101827.28;5099232;28;20118;-76
2024/01/27 07:40:31;;;;;;;9.10;1.60;;;;;;;5.99;100.00;101836.28;5082509;28;20493;-76
2024/01/27 07:42:58;;;;;;;5.40;1.55;;;;;;;5.98;100.00;101834.59;5082146;28;20034;-76
2024/01/27 07:45:23;;;;;;;5.47;1.40;;;;;;;5.99;100.00;101833.59;5082456;28;20023;-76
2024/01/27 07:47:49;;;;;;;8.82;1.67;;;;;;;6.06;100.00;101832.16;5082542;28;20382;-77
2024/01/27 07:50:15;;;;;;;8.23;2.50;;;;;;;6.05;100.00;101833.13;5082384;28;20031;-76
2024/01/27 07:52:40;;;;;;;7.20;1.25;;;;;;;6.02;100.00;101836.03;5082316;28;20035;-76
2024/01/27 07:55:07;;;;;;;5.07;1.38;;;;;;;6.06;100.00;101840.16;5099318;28;20043;-76
2024/01/27 07:57:33;;;;;;;8.98;1.85;;;;;;;6.14;100.00;101836.91;5116018;28;20122;-76
2024/01/27 07:59:59;;;;;;;8.55;1.48;;;;;;;6.18;100.00;101840.16;5082227;28;20184;-76
2024/01/27 08:02:27;;;;;;;9.13;1.85;;;;;;;6.22;100.00;101842.50;5098624;28;20028;-76
2024/01/27 08:04:52;;;;;;;6.75;1.70;;;;;;;6.20;100.00;101833.75;5083021;28;20495;-76
2024/01/27 08:07:18;;;;;;;10.23;1.90;;;;;;;6.23;100.00;101835.31;5098861;28;20031;-77
2024/01/27 08:09:44;;;;;;;5.50;1.40;;;;;;;6.23;100.00;101827.31;5082016;28;20039;-77
2024/01/27 08:12:10;;;;;;;6.28;1.70;;;;;;;6.18;100.00;101821.47;5099048;28;20085;-77
2024/01/27 08:14:36;;;;;;;6.18;1.40;;;;;;;6.15;100.00;101822.56;5097456;28;20047;-77
2024/01/27 08:17:03;;;;;;;7.00;1.65;;;;;;;6.10;100.00;101812.25;5081789;28;20075;-77
2024/01/27 08:19:29;;;;;;;12.73;1.92;;;;;;;6.11;100.00;101819.31;5082368;28;20023;-77
2024/01/27 08:21:54;;;;;;;6.90;1.30;;;;;;;6.14;100.00;101832.41;5098216;28;20501;-77
2024/01/27 08:24:20;;;;;;;6.45;1.58;;;;;;;6.25;100.00;101825.38;5081856;28;20038;-77
2024/01/27 08:26:48;;;;;;;9.13;2.17;;;;;;;6.33;100.00;101822.94;5081917;28;20032;-76
2024/01/27 08:29:14;;;;;;;10.88;1.77;;;;;;;6.36;100.00;101828.88;5115394;28;20023;-76
2024/01/27 08:31:39;;;;;;;5.25;1.80;;;;;;;6.42;100.00;101830.22;5098498;28;20489;-76
2024/01/27 08:34:05;;;;;;;8.73;1.73;;;;;;;6.45;100.00;101824.59;5081261;28;20035;-77
2024/01/27 08:36:32;;;;;;;7.93;1.77;;;;;;;6.60;100.00;101836.75;5097943;28;20395;-76
2024/01/27 08:38:57;;;;;;;10.82;1.95;;;;;;;6.75;100.00;101831.16;5081738;28;20475;-76
2024/01/27 08:41:23;;;;;;;9.93;1.60;;;;;;;6.81;100.00;101833.31;5097842;28;20080;-76
2024/01/27 08:43:49;;;;;;;9.90;1.70;;;;;;;6.86;100.00;101831.13;5098206;28;20487;-76
2024/01/27 08:46:15;;;;;;;8.05;1.55;;;;;;;6.89;100.00;101840.72;5081373;28;20091;-76
2024/01/27 08:48:41;;;;;;;6.95;1.95;;;;;;;6.92;100.00;101835.97;5082034;28;20028;-76
2024/01/27 08:51:10;;;;;;;12.25;1.67;;;;;;;6.95;100.00;101837.53;5081264;28;20471;-77
2024/01/27 08:53:36;;;;;;;6.25;1.92;;;;;;;7.01;100.00;101845.03;5081492;28;20082;-76
2024/01/27 08:56:02;;;;;;;11.90;2.35;;;;;;;7.07;100.00;101831.19;5081205;28;20131;-76
2024/01/27 08:58:27;;;;;;;10.68;2.47;;;;;;;7.08;100.00;101829.34;5081106;28;20067;-77
2024/01/27 09:00:53;;;;;;;6.97;1.73;;;;;;;7.17;100.00;101828.56;5081079;28;20039;-76
2024/01/27 09:03:20;;;;;;;11.02;3.03;;;;;;;7.19;100.00;101815.94;5097327;28;20068;-76
2024/01/27 09:05:47;;;;;;;11.88;2.05;;;;;;;7.18;100.00;101816.91;5114593;28;20415;-77
2024/01/27 09:08:12;;;;;;;14.35;5.65;;;;;;;7.15;100.00;101815.34;5081083;28;20035;-77
2024/01/27 09:10:38;;;;;;;9.00;3.55;;;;;;;7.18;100.00;101815.09;5080895;28;20512;-77
2024/01/27 09:13:07;;;;;;;14.93;6.30;;;;;;;7.22;100.00;101823.69;5080626;28;20039;-76
2024/01/27 09:15:33;;;;;;;14.50;4.50;;;;;;;7.25;100.00;101831.47;5097905;28;20030;-77
2024/01/27 09:17:59;;;;;;;12.07;4.47;;;;;;;7.33;100.00;101828.16;5080704;28;20048;-76
2024/01/27 09:20:24;;;;;;;15.25;4.35;;;;;;;7.38;100.00;101834.84;5081243;28;20080;-77
2024/01/27 09:22:50;;;;;;;10.75;3.20;;;;;;;7.45;100.00;101830.66;5080595;28;20471;-76
2024/01/27 09:25:16;;;;;;;6.80;3.05;;;;;;;7.54;100.00;101826.38;5096957;28;20379;-76
2024/01/27 09:27:42;;;;;;;12.77;4.28;;;;;;;7.59;100.00;101812.56;5081386;28;20043;-76
2024/01/27 09:30:08;;;;;;;7.85;2.20;;;;;;;7.62;100.00;101812.31;5114320;28;20428;-77
2024/01/27 09:32:34;;;;;;;10.23;2.30;;;;;;;7.59;100.00;101813.41;5078696;28;20031;-77
2024/01/27 09:35:00;;;;;;;10.20;2.00;;;;;;;7.65;100.00;101817.44;5081212;28;20031;-78
2024/01/27 09:37:25;;;;;;;9.32;2.25;;;;;;;7.67;100.00;101816.31;5080510;28;20493;-77
2024/01/27 09:39:51;;;;;;;9.75;2.15;;;;;;;7.64;100.00;101799.66;5080334;28;20036;-78
2024/01/27 09:42:20;;;;;;;9.45;1.83;;;;;;;7.73;100.00;101798.88;5080182;28;20025;-78
2024/01/27 09:44:48;;;;;;;10.98;2.33;;;;;;;7.83;100.00;101799.78;5079931;28;20116;-77
2024/01/27 09:47:14;;;;;;;16.55;1.98;;;;;;;7.84;100.00;101798.78;5113939;28;20032;-77
2024/01/27 09:49:41;;;;;;;7.35;2.15;;;;;;;7.90;100.00;101797.41;5096820;28;20091;-77
2024/01/27 09:52:08;;;;;;;10.25;2.63;;;;;;;7.95;100.00;101813.94;5080761;28;20032;-77
2024/01/27 09:54:36;;;;;;;11.48;2.45;;;;;;;7.98;100.00;101796.75;5097124;28;20032;-77
2024/01/27 09:57:02;;;;;;;11.93;3.65;;;;;;;8.01;100.00;101786.59;5113680;28;20032;-77
2024/01/27 09:59:29;;;;;;;13.98;4.63;;;;;;;8.08;100.00;101792.28;5080088;28;20040;-78
2024/01/27 10:01:57;;;;;;;13.07;2.72;;;;;;;8.12;100.00;101778.50;5097263;28;20028;-77
2024/01/27 10:04:25;;;;;;;12.00;3.80;;;;;;;8.20;100.00;101782.31;5113329;28;20368;-77
2024/01/27 10:06:51;;;;;;;8.20;2.17;;;;;;;8.24;100.00;101784.59;5096541;28;20037;-78
2024/01/27 10:09:17;;;;;;;13.75;3.35;;;;;;;8.27;100.00;101788.84;5079815;28;20036;-78
2024/01/27 10:11:47;;;;;;;13.18;2.58;;;;;;;8.37;100.00;101781.69;5079652;28;20028;-77
2024/01/27 10:14:13;;;;;;;8.48;2.53;;;;;;;8.46;100.00;101796.13;5113503;28;20527;-77
2024/01/27 10:16:43;;;;;;;9.45;1.95;;;;;;;8.55;100.00;101790.78;5079670;28;20059;-77
2024/01/27 10:19:17;;;;;;;10.70;1.70;;;;;;;8.63;100.00;101778.53;5095869;28;20053;-77
2024/01/27 10:21:43;;;;;;;12.80;2.83;;;;;;;8.71;100.00;101778.69;5112945;28;20105;-77
2024/01/27 10:24:09;;;;;;;12.35;2.40;;;;;;;8.71;100.00;101768.81;5079378;28;20540;-77
2024/01/27 10:26:36;;;;;;;12.38;1.92;;;;;;;8.74;100.00;101767.69;5080366;28;20050;-77
2024/01/27 10:29:02;;;;;;;18.25;2.67;;;;;;;8.75;100.00;101775.56;5112643;28;20032;-77
2024/01/27 10:31:29;;;;;;;13.93;2.25;;;;;;;8.84;100.00;101762.31;5095945;28;20080;-77
2024/01/27 10:33:56;;;;;;;17.58;3.38;;;;;;;8.88;100.00;101761.06;5063017;28;20039;-78
2024/01/27 10:36:22;;;;;;;11.02;2.58;;;;;;;8.92;100.00;101762.50;5079477;28;20130;-77
2024/01/27 10:38:48;;;;;;;6.65;2.00;;;;;;;8.95;100.00;101749.63;5096115;28;20035;-77
2024/01/27 10:41:35;;;;;;;6.97;1.95;;;;;;;9.03;100.00;101740.88;5096071;28;20039;-77
2024/01/27 10:44:02;;;;;;;11.38;2.30;;;;;;;9.14;100.00;101747.94;5096315;28;20436;-77
2024/01/27 10:46:30;;;;;;;15.77;2.60;;;;;;;9.21;100.00;101747.22;5095464;28;20084;-77
2024/01/27 10:48:56;;;;;;;10.80;2.28;;;;;;;9.28;100.00;101743.97;5078102;28;20356;-78
2024/01/27 10:51:35;;;;;;;16.65;2.97;;;;;;;9.35;100.00;101742.41;5078399;28;20028;-78
2024/01/27 10:54:04;;;;;;;10.90;3.30;;;;;;;9.39;100.00;101741.09;5111793;28;20027;-77
2024/01/27 10:56:32;;;;;;;14.25;2.88;;;;;;;9.45;100.00;101748.59;5094973;28;20046;-77
2024/01/27 10:58:58;;;;;;;17.25;2.05;;;;;;;9.51;100.00;101750.72;5111982;28;20387;-77
2024/01/27 11:01:24;;;;;;;14.32;2.33;;;;;;;9.57;100.00;101755.50;5078299;28;20032;-77
2024/01/27 11:03:52;;;;;;;9.00;2.35;;;;;;;9.58;100.00;101749.16;5062477;28;20093;-77
2024/01/27 11:06:21;;;;;;;13.43;2.47;;;;;;;9.59;100.00;101742.78;5096078;28;20039;-77
2024/01/27 11:08:47;;;;;;;13.50;2.45;;;;;;;9.64;100.00;101745.88;5095745;28;20097;-77
2024/01/27 11:11:12;;;;;;;10.50;2.33;;;;;;;9.71;100.00;101753.34;5079068;28;20039;-77
2024/01/27 11:13:39;;;;;;;11.52;2.80;;;;;;;9.77;100.00;101758.97;5078990;28;20032;-77
2024/01/27 11:16:05;;;;;;;12.95;2.65;;;;;;;9.87;100.00;101756.25;5095876;28;20482;-77
2024/01/27 11:18:31;;;;;;;11.35;2.20;;;;;;;9.93;100.00;101753.00;5079270;28;20039;-77
2024/01/27 11:20:58;;;;;;;12.25;2.10;;;;;;;10.07;100.00;101762.41;5095459;28;20498;-78